Time;durP1;ratioP1;P1;durP2;ratioP2;P2;SDS_P1;SDS_P2;PMS_P1;PMS_P2;Temp;Humidity;BMP_temperature;BMP_pressure;BME280_temperature;BME280_humidity;BME280_pressure;Samples;Min_cycle;Max_cycle;Signal;HPM_P1;HPM_P2
2020/12/11 00:00:03;;;;;;;63.58;32.83;;;2.10;99.90;;;;;;5053652;28;20411;-78
2020/12/11 00:02:29;;;;;;;67.68;31.77;;;2.10;99.90;;;;;;5053563;28;20024;-79
2020/12/11 00:04:55;;;;;;;72.80;33.85;;;2.10;99.90;;;;;;5053259;28;20050;-78
2020/12/11 00:07:21;;;;;;;69.03;34.10;;;2.20;99.90;;;;;;5071118;28;20112;-78
2020/12/11 00:09:46;;;;;;;69.18;33.95;;;2.30;99.90;;;;;;5071242;28;20032;-78
2020/12/11 00:12:12;;;;;;;77.28;36.47;;;2.40;99.90;;;;;;5071012;28;20491;-79
2020/12/11 00:14:38;;;;;;;70.85;33.75;;;2.30;99.90;;;;;;5053143;28;20039;-79
2020/12/11 00:17:04;;;;;;;75.68;35.33;;;2.40;99.90;;;;;;5070694;28;20036;-79
2020/12/11 00:19:29;;;;;;;70.63;33.08;;;2.30;99.90;;;;;;5071139;28;20016;-78
2020/12/11 00:21:55;;;;;;;69.13;33.50;;;2.30;99.90;;;;;;5053118;28;20032;-78
2020/12/11 00:24:21;;;;;;;72.55;33.10;;;2.20;99.90;;;;;;5073514;28;20099;-75
2020/12/11 00:26:46;;;;;;;72.57;36.72;;;2.10;99.90;;;;;;5070751;28;20024;-76
2020/12/11 00:29:12;;;;;;;79.40;34.63;;;2.20;99.90;;;;;;5053111;28;20116;-76
2020/12/11 00:31:38;;;;;;;80.05;36.42;;;2.30;99.90;;;;;;5070806;28;20487;-76
2020/12/11 00:34:04;;;;;;;75.93;33.15;;;2.40;99.90;;;;;;5070918;28;20103;-75
2020/12/11 00:36:30;;;;;;;73.35;36.38;;;2.50;99.90;;;;;;5052924;28;20024;-75
2020/12/11 00:38:55;;;;;;;75.57;35.05;;;2.50;99.90;;;;;;5071225;28;20021;-75
2020/12/11 00:41:21;;;;;;;82.53;37.58;;;2.50;99.90;;;;;;5070888;28;20029;-75
2020/12/11 00:43:47;;;;;;;72.95;34.10;;;2.60;99.90;;;;;;5070877;28;20021;-75
2020/12/11 00:46:13;;;;;;;76.07;35.47;;;2.50;99.90;;;;;;5070703;28;20036;-76
2020/12/11 00:48:40;;;;;;;77.10;35.63;;;2.50;99.90;;;;;;5052638;28;20024;-75
2020/12/11 00:51:06;;;;;;;79.57;36.03;;;2.50;99.90;;;;;;5070888;28;20029;-75
2020/12/11 00:53:31;;;;;;;78.68;37.88;;;2.50;99.90;;;;;;5070615;28;20357;-75
2020/12/11 00:55:57;;;;;;;70.50;34.72;;;2.70;99.90;;;;;;5070560;28;20032;-75
2020/12/11 00:58:23;;;;;;;80.60;36.33;;;2.60;99.90;;;;;;5070321;28;20029;-76
2020/12/11 01:00:49;;;;;;;73.78;36.38;;;2.60;99.90;;;;;;5070550;28;20032;-75
2020/12/11 01:03:14;;;;;;;76.07;35.75;;;2.40;99.90;;;;;;5070337;28;20016;-75
2020/12/11 01:05:40;;;;;;;71.45;35.05;;;2.20;99.90;;;;;;5070324;28;20076;-75
2020/12/11 01:08:06;;;;;;;67.65;30.42;;;2.20;99.90;;;;;;5052442;28;20701;-75
2020/12/11 01:10:33;;;;;;;63.30;30.40;;;2.20;99.90;;;;;;5035931;28;20031;-75
2020/12/11 01:12:59;;;;;;;65.20;30.23;;;2.10;99.90;;;;;;5070311;28;20021;-75
2020/12/11 01:15:24;;;;;;;67.35;31.45;;;2.10;99.90;;;;;;5052258;28;20097;-75
2020/12/11 01:17:50;;;;;;;62.88;29.27;;;2.20;99.90;;;;;;5069778;28;20028;-75
2020/12/11 01:20:16;;;;;;;63.65;30.95;;;2.20;99.90;;;;;;5070497;28;20421;-75
2020/12/11 01:22:42;;;;;;;58.17;29.98;;;2.10;99.90;;;;;;5035746;28;20028;-75
2020/12/11 01:25:08;;;;;;;62.58;31.67;;;2.10;99.90;;;;;;5069952;28;20086;-75
2020/12/11 01:27:34;;;;;;;64.38;31.17;;;2.10;99.90;;;;;;5070314;28;20545;-75
2020/12/11 01:30:00;;;;;;;61.13;29.60;;;2.10;99.90;;;;;;5070171;28;20056;-75
2020/12/11 01:32:25;;;;;;;60.28;30.60;;;2.10;99.90;;;;;;5052509;28;20036;-75
2020/12/11 01:34:51;;;;;;;62.53;30.60;;;2.30;99.90;;;;;;5069936;28;20341;-75
2020/12/11 01:37:17;;;;;;;65.88;31.92;;;2.20;99.90;;;;;;5070106;28;20027;-75
2020/12/11 01:39:43;;;;;;;60.33;29.17;;;2.20;99.90;;;;;;5069824;28;20024;-75
2020/12/11 01:42:11;;;;;;;72.38;31.85;;;2.30;99.90;;;;;;5070240;28;20543;-75
2020/12/11 01:44:37;;;;;;;62.38;30.40;;;2.10;99.90;;;;;;5052305;28;20142;-75
2020/12/11 01:47:03;;;;;;;58.50;28.35;;;2.00;99.90;;;;;;5055919;28;20107;-75
2020/12/11 01:49:29;;;;;;;59.25;29.33;;;2.00;99.90;;;;;;5073425;28;20039;-75
2020/12/11 01:51:55;;;;;;;59.28;28.77;;;2.10;99.90;;;;;;5073732;28;20476;-75
2020/12/11 01:54:21;;;;;;;55.67;28.23;;;2.20;99.90;;;;;;5038503;28;20046;-75
2020/12/11 01:56:52;;;;;;;53.17;26.33;;;2.20;99.90;;;;;;5055582;28;20043;-75
2020/12/11 01:59:29;;;;;;;50.53;25.55;;;2.10;99.90;;;;;;5055441;28;20385;-75
2020/12/11 02:01:58;;;;;;;52.28;26.15;;;2.00;99.90;;;;;;5073544;28;20118;-75
2020/12/11 02:04:25;;;;;;;47.90;24.27;;;2.10;99.90;;;;;;5055345;28;20056;-76
2020/12/11 02:06:51;;;;;;;49.42;23.77;;;2.10;99.90;;;;;;5073329;28;20495;-75
2020/12/11 02:09:19;;;;;;;46.85;24.30;;;2.00;99.90;;;;;;5073371;28;20107;-75
2020/12/11 02:11:48;;;;;;;47.15;24.35;;;2.10;99.90;;;;;;5055284;28;20036;-75
2020/12/11 02:14:14;;;;;;;47.35;24.92;;;2.10;99.90;;;;;;5073135;28;20021;-75
2020/12/11 02:16:40;;;;;;;44.10;22.75;;;2.10;99.90;;;;;;5073096;28;20357;-75
2020/12/11 02:19:05;;;;;;;49.83;25.25;;;2.20;99.90;;;;;;5055031;28;20074;-75
2020/12/11 02:21:32;;;;;;;50.00;25.58;;;2.20;99.90;;;;;;5073063;28;20070;-75
2020/12/11 02:23:58;;;;;;;52.65;26.00;;;2.20;99.90;;;;;;5055273;28;20024;-75
2020/12/11 02:26:24;;;;;;;42.10;22.38;;;2.00;99.90;;;;;;5073234;28;20016;-76
2020/12/11 02:28:50;;;;;;;44.83;23.77;;;2.10;99.90;;;;;;5055451;28;20115;-76
2020/12/11 02:31:16;;;;;;;45.58;24.08;;;2.10;99.90;;;;;;5073115;28;20027;-76
2020/12/11 02:33:41;;;;;;;49.35;24.38;;;2.10;99.90;;;;;;5073280;28;20024;-75
2020/12/11 02:36:07;;;;;;;51.00;25.67;;;1.90;99.90;;;;;;5072579;28;20030;-76
2020/12/11 02:38:33;;;;;;;55.83;25.15;;;1.80;99.90;;;;;;5072942;28;20028;-75
2020/12/11 02:41:02;;;;;;;48.97;25.08;;;1.80;99.90;;;;;;5072781;28;20024;-75
2020/12/11 02:43:34;;;;;;;48.88;25.35;;;1.90;99.90;;;;;;5054822;28;20016;-75
2020/12/11 02:46:00;;;;;;;50.22;24.25;;;2.00;99.90;;;;;;5054512;28;20077;-76
2020/12/11 02:48:26;;;;;;;49.60;24.42;;;1.90;99.90;;;;;;5054848;28;20127;-75
2020/12/11 02:50:51;;;;;;;51.70;25.25;;;1.90;99.90;;;;;;5072453;28;20051;-76
2020/12/11 02:53:17;;;;;;;53.08;25.27;;;2.10;99.90;;;;;;5054552;28;20504;-76
2020/12/11 02:55:43;;;;;;;46.25;24.65;;;1.90;99.90;;;;;;5072072;28;20028;-76
2020/12/11 02:58:08;;;;;;;49.65;24.38;;;2.00;99.90;;;;;;5053388;28;20024;-75
2020/12/11 03:00:34;;;;;;;45.65;23.02;;;2.00;99.90;;;;;;5054797;28;20021;-75
2020/12/11 03:03:00;;;;;;;45.47;22.17;;;1.90;99.90;;;;;;5072136;28;20109;-76
2020/12/11 03:05:26;;;;;;;43.25;22.77;;;1.90;99.90;;;;;;5072184;28;20024;-76
2020/12/11 03:07:51;;;;;;;43.95;23.15;;;1.70;99.90;;;;;;5072065;28;20047;-76
2020/12/11 03:10:17;;;;;;;41.50;22.33;;;1.70;99.90;;;;;;5054319;28;20542;-75
2020/12/11 03:12:43;;;;;;;46.33;24.55;;;1.70;99.90;;;;;;5071990;28;20029;-75
2020/12/11 03:15:09;;;;;;;38.92;20.13;;;1.80;99.90;;;;;;5071952;28;20035;-75
2020/12/11 03:17:34;;;;;;;45.88;23.52;;;1.70;99.90;;;;;;5071365;28;20043;-75
2020/12/11 03:20:00;;;;;;;39.35;21.38;;;1.70;99.90;;;;;;5072069;28;20102;-75
2020/12/11 03:22:26;;;;;;;44.67;22.58;;;1.70;99.90;;;;;;5071668;28;20016;-76
2020/12/11 03:24:52;;;;;;;45.22;23.40;;;1.80;99.90;;;;;;5053943;28;20024;-75
2020/12/11 03:27:17;;;;;;;39.42;21.67;;;1.80;99.90;;;;;;5071784;28;20031;-75
2020/12/11 03:29:43;;;;;;;46.65;23.65;;;1.80;99.90;;;;;;5071664;28;20020;-76
2020/12/11 03:32:09;;;;;;;41.25;21.23;;;1.80;99.90;;;;;;5071826;28;20024;-75
2020/12/11 03:34:34;;;;;;;42.67;21.67;;;1.70;99.90;;;;;;5071402;28;20028;-76
2020/12/11 03:37:00;;;;;;;41.47;21.58;;;1.80;99.90;;;;;;5053575;28;20028;-75
2020/12/11 03:39:27;;;;;;;42.90;21.92;;;1.90;99.90;;;;;;5036727;28;20025;-76
2020/12/11 03:41:53;;;;;;;44.85;21.95;;;1.90;99.90;;;;;;5071528;28;20469;-76
2020/12/11 03:44:20;;;;;;;45.13;22.33;;;1.80;99.90;;;;;;5071191;28;20024;-75
2020/12/11 03:46:46;;;;;;;45.10;22.27;;;1.70;99.90;;;;;;5037010;28;20032;-75
2020/12/11 03:49:12;;;;;;;42.17;22.05;;;1.80;99.90;;;;;;5036613;28;20035;-75
2020/12/11 03:51:38;;;;;;;43.90;22.33;;;1.70;99.90;;;;;;5071436;28;20024;-75
2020/12/11 03:54:04;;;;;;;42.58;20.77;;;1.70;99.90;;;;;;5053205;28;20502;-75
2020/12/11 03:56:30;;;;;;;43.33;22.92;;;1.80;99.90;;;;;;5071218;28;20506;-76
2020/12/11 03:58:56;;;;;;;38.97;20.58;;;1.90;99.90;;;;;;5071321;28;20048;-76
2020/12/11 04:01:22;;;;;;;42.65;22.58;;;1.80;99.90;;;;;;5053535;28;20056;-75
2020/12/11 04:03:48;;;;;;;40.10;20.20;;;1.70;99.90;;;;;;5071310;28;20020;-76
2020/12/11 04:06:16;;;;;;;38.17;20.45;;;1.80;99.90;;;;;;5071058;28;20020;-75
2020/12/11 04:08:43;;;;;;;37.45;20.38;;;1.90;99.90;;;;;;5070995;28;20111;-75
2020/12/11 04:11:13;;;;;;;41.08;20.88;;;2.10;99.90;;;;;;5071660;28;20036;-76
2020/12/11 04:13:40;;;;;;;41.78;21.45;;;2.10;99.90;;;;;;5054178;28;20027;-75
2020/12/11 04:16:06;;;;;;;37.95;20.42;;;2.10;99.90;;;;;;5071540;28;20033;-75
2020/12/11 04:18:32;;;;;;;41.25;21.55;;;2.20;99.90;;;;;;5053292;28;20021;-75
2020/12/11 04:20:58;;;;;;;37.47;20.63;;;1.90;99.90;;;;;;5070933;28;20533;-75
2020/12/11 04:23:25;;;;;;;41.85;21.15;;;1.80;99.90;;;;;;5071853;28;20025;-75
2020/12/11 04:25:52;;;;;;;37.65;19.73;;;1.80;99.90;;;;;;5071390;28;20012;-76
2020/12/11 04:28:18;;;;;;;38.83;20.35;;;1.70;99.90;;;;;;5072520;28;20135;-76
2020/12/11 04:30:44;;;;;;;37.13;18.88;;;1.60;99.90;;;;;;5054994;28;20107;-77
2020/12/11 04:33:10;;;;;;;45.33;22.88;;;1.70;99.90;;;;;;5072785;28;20103;-76
2020/12/11 04:35:36;;;;;;;43.83;22.52;;;1.60;99.90;;;;;;5057838;28;20105;-77
2020/12/11 04:38:03;;;;;;;52.38;24.50;;;1.60;99.90;;;;;;5070843;28;20074;-76
2020/12/11 04:40:29;;;;;;;44.88;23.67;;;1.50;99.90;;;;;;5074065;28;20016;-75
2020/12/11 04:42:55;;;;;;;50.47;24.60;;;1.50;99.90;;;;;;5055350;28;20023;-78
2020/12/11 04:45:23;;;;;;;50.10;24.20;;;1.30;99.90;;;;;;5052913;28;20024;-78
2020/12/11 04:47:50;;;;;;;49.90;24.85;;;1.50;99.90;;;;;;5052930;28;20119;-78
2020/12/11 04:50:18;;;;;;;51.40;25.42;;;1.40;99.90;;;;;;5070748;28;20380;-78
2020/12/11 04:52:46;;;;;;;55.20;24.98;;;1.50;99.90;;;;;;5052966;28;20438;-79
2020/12/11 04:55:17;;;;;;;54.00;26.25;;;1.60;99.90;;;;;;5052844;28;20472;-78
2020/12/11 04:57:53;;;;;;;49.05;25.10;;;1.40;99.90;;;;;;5070730;28;20020;-78
2020/12/11 05:00:21;;;;;;;57.00;23.92;;;1.30;99.90;;;;;;5052744;28;20373;-78
2020/12/11 05:02:47;;;;;;;46.67;24.67;;;1.40;99.90;;;;;;5070714;28;20047;-78
2020/12/11 05:05:14;;;;;;;54.67;24.60;;;1.40;99.90;;;;;;5052565;28;20032;-78
2020/12/11 05:07:41;;;;;;;46.67;23.23;;;1.40;99.90;;;;;;5070624;28;20029;-78
2020/12/11 05:10:08;;;;;;;55.75;24.35;;;1.40;99.90;;;;;;5052620;28;20021;-77
2020/12/11 05:12:35;;;;;;;51.97;24.52;;;1.30;99.90;;;;;;5052434;28;20025;-78
2020/12/11 05:15:05;;;;;;;52.50;24.27;;;1.40;99.90;;;;;;5070518;28;20040;-78
2020/12/11 05:17:33;;;;;;;60.90;25.70;;;1.50;99.90;;;;;;5070461;28;20549;-78
2020/12/11 05:20:00;;;;;;;58.53;24.52;;;1.50;99.90;;;;;;5071492;28;20538;-79
2020/12/11 05:22:30;;;;;;;45.13;23.30;;;1.50;99.90;;;;;;5056511;28;20498;-77
2020/12/11 05:24:57;;;;;;;45.03;21.65;;;1.40;99.90;;;;;;5074296;28;20043;-77
2020/12/11 05:27:40;;;;;;;38.47;21.42;;;1.50;99.90;;;;;;5074320;28;20090;-78
2020/12/11 05:30:13;;;;;;;46.28;22.20;;;1.50;99.90;;;;;;5074347;28;20025;-78
2020/12/11 05:32:44;;;;;;;42.45;20.85;;;1.30;99.90;;;;;;5074082;28;20020;-78
2020/12/11 05:35:18;;;;;;;40.55;21.20;;;1.20;99.90;;;;;;5074051;28;20060;-78
2020/12/11 05:37:55;;;;;;;46.50;21.52;;;1.10;99.90;;;;;;5073870;28;20024;-78
2020/12/11 05:40:21;;;;;;;44.47;21.40;;;1.20;99.90;;;;;;5074060;28;20116;-78
2020/12/11 05:43:20;;;;;;;45.38;22.05;;;1.20;99.90;;;;;;5073865;28;20111;-78
2020/12/11 05:45:53;;;;;;;88.72;22.10;;;0.90;99.90;;;;;;5002643;28;20421;-78
2020/12/11 05:48:21;;;;;;;38.63;19.77;;;0.80;99.90;;;;;;5055816;28;20025;-78
2020/12/11 05:50:47;;;;;;;45.13;21.85;;;0.90;99.90;;;;;;5073916;28;20028;-77
2020/12/11 05:53:13;;;;;;;44.65;21.83;;;0.80;99.90;;;;;;5073918;28;20039;-77
2020/12/11 05:55:39;;;;;;;42.88;20.60;;;0.70;99.90;;;;;;5074014;28;20104;-78
2020/12/11 05:58:08;;;;;;;44.05;22.73;;;0.70;99.90;;;;;;5073899;28;20056;-78
2020/12/11 06:00:34;;;;;;;46.65;22.08;;;0.70;99.90;;;;;;5073929;28;20126;-77
2020/12/11 06:03:01;;;;;;;46.83;22.27;;;0.70;99.90;;;;;;5055584;28;20561;-78
2020/12/11 06:05:27;;;;;;;40.78;21.77;;;0.90;99.90;;;;;;5055785;28;20020;-78
2020/12/11 06:07:53;;;;;;;38.83;19.83;;;0.90;99.90;;;;;;5055539;28;20079;-78
2020/12/11 06:10:23;;;;;;;38.22;19.73;;;0.90;99.90;;;;;;5073544;28;20086;-78
2020/12/11 06:12:50;;;;;;;44.38;21.10;;;0.90;99.90;;;;;;5073427;28;20021;-78
2020/12/11 06:15:21;;;;;;;46.13;20.55;;;0.90;99.90;;;;;;5073227;28;20021;-79
2020/12/11 06:17:57;;;;;;;39.92;20.08;;;0.70;99.90;;;;;;5073281;28;20710;-78
2020/12/11 06:20:24;;;;;;;39.10;20.25;;;0.70;99.90;;;;;;5055478;28;20030;-78
2020/12/11 06:22:50;;;;;;;42.28;20.73;;;0.80;99.90;;;;;;5073262;28;20028;-79
2020/12/11 06:25:32;;;;;;;45.75;22.65;;;0.90;99.90;;;;;;5054893;28;20020;-79
2020/12/11 06:27:59;;;;;;;94.05;22.60;;;1.00;99.90;;;;;;5073213;28;20441;-78
2020/12/11 06:30:31;;;;;;;45.10;22.60;;;1.00;99.90;;;;;;5071058;28;20095;-78
2020/12/11 06:32:58;;;;;;;50.70;23.60;;;1.00;99.90;;;;;;5055249;28;20024;-78
2020/12/11 06:35:24;;;;;;;94.88;23.48;;;1.00;99.90;;;;;;5073938;28;20104;-78
2020/12/11 06:37:50;;;;;;;54.58;24.13;;;0.90;99.90;;;;;;5066889;28;20029;-79
2020/12/11 06:40:16;;;;;;;54.00;23.98;;;1.00;99.90;;;;;;5072682;28;20484;-78
2020/12/11 06:42:43;;;;;;;64.32;24.08;;;1.00;99.90;;;;;;5072684;28;20024;-78
2020/12/11 06:45:25;;;;;;;79.10;24.92;;;1.00;99.90;;;;;;5072677;28;20024;-78
2020/12/11 06:47:56;;;;;;;41.20;19.50;;;0.90;99.90;;;;;;5071452;28;20498;-78
2020/12/11 06:50:30;;;;;;;75.72;26.58;;;1.10;99.90;;;;;;5072487;28;20115;-78
2020/12/11 06:52:56;;;;;;;52.72;23.35;;;1.10;99.90;;;;;;5071613;28;20093;-78
2020/12/11 06:55:22;;;;;;;55.08;25.17;;;1.10;99.90;;;;;;5072251;28;20024;-79
2020/12/11 06:57:49;;;;;;;51.45;24.30;;;1.10;99.90;;;;;;5082885;28;20416;-77
2020/12/11 07:00:30;;;;;;;60.95;26.17;;;1.00;99.90;;;;;;5075470;28;20020;-77
2020/12/11 07:03:16;;;;;;;51.53;24.33;;;1.00;99.90;;;;;;5069457;28;20055;-78
2020/12/11 07:05:42;;;;;;;54.55;25.08;;;1.10;99.90;;;;;;5055475;28;20298;-78
2020/12/11 07:08:15;;;;;;;51.83;25.88;;;0.90;99.90;;;;;;5071592;28;20029;-77
2020/12/11 07:10:43;;;;;;;56.58;26.25;;;0.90;99.90;;;;;;5072200;28;20028;-77
2020/12/11 07:13:12;;;;;;;54.00;23.95;;;1.00;99.90;;;;;;5074282;28;20016;-77
2020/12/11 07:15:38;;;;;;;54.65;24.48;;;1.10;99.90;;;;;;5063475;28;20028;-77
2020/12/11 07:18:12;;;;;;;54.08;26.08;;;1.20;99.90;;;;;;5074100;28;20028;-77
2020/12/11 07:20:37;;;;;;;55.50;26.50;;;1.00;99.90;;;;;;5071788;28;20024;-77
2020/12/11 07:23:04;;;;;;;52.67;24.23;;;1.00;99.90;;;;;;5079309;28;20028;-78
2020/12/11 07:25:34;;;;;;;48.05;23.27;;;1.00;99.90;;;;;;5054999;28;20116;-78
2020/12/11 07:28:01;;;;;;;51.88;25.77;;;0.80;99.90;;;;;;5053755;28;20611;-77
2020/12/11 07:30:27;;;;;;;50.05;23.52;;;0.80;99.90;;;;;;5070028;28;20476;-79
2020/12/11 07:32:56;;;;;;;46.85;23.35;;;0.80;99.90;;;;;;5075095;28;20035;-78
2020/12/11 07:35:23;;;;;;;49.75;22.45;;;1.00;99.90;;;;;;5057270;28;20111;-79
2020/12/11 07:37:56;;;;;;;53.05;23.92;;;1.00;99.90;;;;;;5071294;28;20032;-79
2020/12/11 07:40:23;;;;;;;41.13;21.90;;;1.20;99.90;;;;;;5071026;28;20025;-79
2020/12/11 07:42:50;;;;;;;50.70;23.30;;;1.30;99.90;;;;;;5070459;28;20021;-80
2020/12/11 07:45:24;;;;;;;52.05;22.85;;;1.30;99.90;;;;;;5070612;28;20078;-78
2020/12/11 07:47:51;;;;;;;48.03;22.88;;;1.20;99.90;;;;;;5070028;28;20056;-79
2020/12/11 07:50:20;;;;;;;45.13;23.67;;;1.00;99.90;;;;;;5070624;28;20063;-79
2020/12/11 07:52:47;;;;;;;46.97;23.75;;;0.90;99.90;;;;;;5070190;28;20373;-78
2020/12/11 07:55:12;;;;;;;51.05;24.30;;;1.00;99.90;;;;;;5070466;28;20275;-80
2020/12/11 07:57:38;;;;;;;47.88;25.55;;;1.10;99.90;;;;;;5070438;28;20523;-79
2020/12/11 08:00:05;;;;;;;43.45;23.02;;;1.30;99.90;;;;;;5070502;28;20472;-78
2020/12/11 08:02:32;;;;;;;47.30;22.85;;;1.40;99.90;;;;;;5071949;28;20046;-80
2020/12/11 08:04:57;;;;;;;43.53;23.08;;;1.50;99.90;;;;;;5061421;28;20484;-78
2020/12/11 08:07:24;;;;;;;42.35;22.60;;;1.30;99.90;;;;;;5069831;28;20039;-79
2020/12/11 08:09:50;;;;;;;38.53;21.58;;;1.20;99.90;;;;;;5071629;28;20024;-79
2020/12/11 08:12:16;;;;;;;43.45;21.80;;;1.20;99.90;;;;;;5070981;28;20468;-79
2020/12/11 08:14:43;;;;;;;40.67;22.90;;;1.20;99.90;;;;;;5070135;28;20020;-79
2020/12/11 08:17:11;;;;;;;32.88;18.95;;;1.30;99.90;;;;;;5069606;28;20119;-79
2020/12/11 08:19:37;;;;;;;31.50;18.08;;;1.30;99.90;;;;;;5070217;28;20017;-79
2020/12/11 08:22:16;;;;;;;36.47;20.13;;;1.40;99.90;;;;;;5069938;28;20046;-78
2020/12/11 08:24:43;;;;;;;36.47;18.65;;;1.60;99.90;;;;;;5059981;28;20457;-79
2020/12/11 08:27:24;;;;;;;35.85;20.02;;;1.70;99.90;;;;;;5057050;28;20123;-78
2020/12/11 08:30:12;;;;;;;31.65;17.33;;;1.70;99.90;;;;;;5070225;28;20557;-79
2020/12/11 08:32:38;;;;;;;36.03;18.08;;;1.70;99.90;;;;;;5069657;28;20044;-79
2020/12/11 08:35:14;;;;;;;32.65;16.92;;;1.70;99.90;;;;;;5058777;28;20021;-80
2020/12/11 08:37:53;;;;;;;39.13;18.80;;;1.90;99.90;;;;;;5059191;28;20468;-80
2020/12/11 08:40:20;;;;;;;35.03;18.60;;;1.70;99.90;;;;;;5069032;28;20028;-78
2020/12/11 08:42:57;;;;;;;33.80;19.10;;;1.40;99.90;;;;;;5070352;28;20024;-79
2020/12/11 08:45:38;;;;;;;33.80;18.25;;;1.40;99.90;;;;;;5057981;28;20028;-79
2020/12/11 08:48:21;;;;;;;32.10;19.20;;;1.50;99.90;;;;;;5070417;28;20036;-80
2020/12/11 08:50:51;;;;;;;38.58;21.40;;;1.40;99.90;;;;;;5069211;28;20067;-79
2020/12/11 08:53:18;;;;;;;31.80;17.65;;;1.60;99.90;;;;;;5070167;28;20487;-80
2020/12/11 08:55:44;;;;;;;40.88;20.65;;;1.70;99.90;;;;;;5042363;28;20031;-79
2020/12/11 08:58:10;;;;;;;33.42;18.15;;;1.90;99.90;;;;;;5074362;28;20028;-79
2020/12/11 09:00:37;;;;;;;29.45;16.30;;;2.00;99.90;;;;;;5073372;28;20027;-79
2020/12/11 09:03:03;;;;;;;32.65;17.70;;;1.90;99.90;;;;;;5073502;28;20020;-79
2020/12/11 09:05:29;;;;;;;29.98;17.27;;;2.10;99.90;;;;;;5060721;28;20023;-79
2020/12/11 09:07:55;;;;;;;35.08;16.88;;;2.30;99.90;;;;;;5072923;28;20021;-79
2020/12/11 09:10:21;;;;;;;32.22;17.92;;;2.40;99.90;;;;;;5074209;28;20453;-79
2020/12/11 09:12:50;;;;;;;38.15;17.90;;;2.30;99.90;;;;;;5065638;28;20035;-79
2020/12/11 09:15:17;;;;;;;31.27;18.17;;;2.50;99.90;;;;;;5075155;28;20025;-80
2020/12/11 09:17:43;;;;;;;28.63;16.25;;;2.50;99.90;;;;;;5059669;28;20521;-80
2020/12/11 09:20:09;;;;;;;28.48;15.48;;;2.50;99.90;;;;;;5075141;28;20100;-80
2020/12/11 09:22:35;;;;;;;26.00;15.73;;;2.50;99.90;;;;;;5059545;28;20028;-78
2020/12/11 09:25:01;;;;;;;26.58;14.02;;;2.80;99.90;;;;;;5059661;28;20020;-79
2020/12/11 09:27:27;;;;;;;22.27;13.65;;;3.00;99.90;;;;;;5073247;28;20027;-79
2020/12/11 09:29:55;;;;;;;26.05;13.52;;;3.00;99.90;;;;;;5044923;28;20388;-80
2020/12/11 09:32:40;;;;;;;21.85;13.20;;;3.10;97.90;;;;;;5047740;28;20035;-77
2020/12/11 09:35:06;;;;;;;21.45;12.13;;;3.50;97.20;;;;;;5069571;28;20051;-79
2020/12/11 09:37:32;;;;;;;23.60;11.98;;;3.80;94.60;;;;;;5068034;28;20017;-79
2020/12/11 09:39:58;;;;;;;18.60;11.43;;;4.00;93.50;;;;;;5073013;28;20044;-77
2020/12/11 09:42:50;;;;;;;20.20;12.65;;;4.10;92.40;;;;;;5072194;28;20353;-78
2020/12/11 09:55:24;;;;;;;18.63;10.98;;;4.10;92.00;;;;;;5072666;28;20490;-78
2020/12/11 09:57:50;;;;;;;21.45;10.65;;;4.30;91.50;;;;;;5071775;28;20021;-77
2020/12/11 10:00:15;;;;;;;21.10;10.82;;;4.70;90.30;;;;;;5072336;28;20021;-77
2020/12/11 10:05:13;;;;;;;18.63;9.20;;;5.00;86.70;;;;;;5072110;28;20016;-78
2020/12/11 10:07:39;;;;;;;17.05;9.27;;;4.70;86.60;;;;;;5058764;28;20055;-78
2020/12/11 10:10:04;;;;;;;18.35;9.63;;;4.60;88.80;;;;;;5059404;28;20021;-77
2020/12/11 10:12:30;;;;;;;17.17;9.30;;;4.50;88.50;;;;;;5072731;28;20256;-78
2020/12/11 10:14:59;;;;;;;15.95;8.55;;;4.70;88.10;;;;;;5056509;28;20021;-77
2020/12/11 10:17:25;;;;;;;19.30;8.88;;;4.70;87.70;;;;;;5067069;28;20062;-77
2020/12/11 10:19:51;;;;;;;23.80;9.48;;;4.40;87.10;;;;;;5071585;28;20121;-78
2020/12/11 10:22:17;;;;;;;17.65;8.75;;;4.30;88.10;;;;;;5072279;28;20025;-79
2020/12/11 10:24:42;;;;;;;14.68;9.20;;;4.20;89.60;;;;;;5071879;28;20020;-77
2020/12/11 10:27:08;;;;;;;24.52;9.98;;;4.10;90.00;;;;;;5056119;28;20056;-77
2020/12/11 10:29:34;;;;;;;27.00;15.35;;;4.10;90.20;;;;;;5071918;28;20024;-77
2020/12/11 10:32:03;;;;;;;21.00;10.50;;;4.20;90.60;;;;;;5072175;28;20476;-77
2020/12/11 10:34:29;;;;;;;17.13;9.55;;;4.10;90.00;;;;;;5074674;28;20030;-80
2020/12/11 10:36:54;;;;;;;14.60;9.48;;;4.10;90.00;;;;;;5055846;28;20035;-77
2020/12/11 10:39:20;;;;;;;18.30;9.48;;;4.10;90.20;;;;;;5055031;28;20027;-77
2020/12/11 10:41:46;;;;;;;14.63;8.70;;;4.20;89.90;;;;;;5072329;28;20024;-77
2020/12/11 10:44:11;;;;;;;40.05;9.27;;;4.30;89.90;;;;;;5072303;28;20048;-77
2020/12/11 10:46:37;;;;;;;12.95;8.18;;;4.40;87.80;;;;;;5072468;28;20042;-78
2020/12/11 10:49:03;;;;;;;26.67;11.13;;;4.50;88.00;;;;;;5072210;28;20028;-79
2020/12/11 10:51:29;;;;;;;50.50;11.80;;;4.60;87.00;;;;;;5072921;28;20056;-78
2020/12/11 10:53:55;;;;;;;14.27;7.32;;;4.70;86.80;;;;;;5072075;28;20029;-78
2020/12/11 10:56:20;;;;;;;12.82;8.38;;;4.80;86.60;;;;;;5071895;28;20484;-78
2020/12/11 10:58:47;;;;;;;29.08;8.35;;;5.00;85.90;;;;;;5071602;28;20024;-78
2020/12/11 11:01:14;;;;;;;38.30;8.98;;;5.10;84.00;;;;;;5071663;28;20025;-76
2020/12/11 11:03:39;;;;;;;28.67;8.73;;;5.30;85.30;;;;;;5072565;28;20031;-77
2020/12/11 11:06:17;;;;;;;14.30;7.70;;;5.50;83.30;;;;;;5070900;28;20103;-77
2020/12/11 11:11:08;;;;;;;31.88;8.35;;;6.10;81.90;;;;;;5071698;28;20020;-77
2020/12/11 11:13:57;;;;;;;15.88;7.57;;;6.20;79.60;;;;;;5195037;22;20019;-76
2020/12/11 11:16:38;;;;;;;65.25;10.95;;;6.50;79.90;;;;;;5071425;28;20103;-74
2020/12/11 11:19:13;;;;;;;25.80;8.45;;;6.60;77.90;;;;;;5070330;28;20031;-73
2020/12/11 11:29:29;;;;;;;19.27;10.60;;;5.50;81.90;;;;;;5071387;28;20033;-74
2020/12/11 11:31:55;;;;;;;20.67;11.10;;;5.20;83.10;;;;;;5036979;28;20031;-74
2020/12/11 11:34:20;;;;;;;87.65;16.38;;;4.90;84.80;;;;;;5053350;28;20547;-74
2020/12/11 11:36:53;;;;;;;78.18;19.15;;;4.80;85.70;;;;;;5071407;28;20032;-74
2020/12/11 11:39:19;;;;;;;24.42;13.30;;;4.90;86.70;;;;;;5053384;28;20031;-74
2020/12/11 11:41:47;;;;;;;38.30;16.50;;;5.10;87.20;;;;;;5037019;28;20225;-74
2020/12/11 11:46:49;;;;;;;28.50;14.15;;;4.90;87.10;;;;;;5052392;28;20024;-74
2020/12/11 11:49:20;;;;;;;45.92;15.73;;;4.80;87.80;;;;;;5051082;28;20124;-74
2020/12/11 11:52:02;;;;;;;52.85;19.15;;;4.70;88.20;;;;;;5033637;28;20032;-74
2020/12/11 11:54:28;;;;;;;;;;;4.70;89.00;;;;;;5051577;28;20033;-74
2020/12/11 11:56:57;;;;;;;31.33;17.23;;;4.80;89.00;;;;;;5063675;28;19931;-74
2020/12/11 11:59:23;;;;;;;33.75;16.65;;;4.70;87.30;;;;;;5053637;28;20408;-74
2020/12/11 12:01:53;;;;;;;40.75;16.73;;;4.70;87.60;;;;;;5053411;28;20055;-74
2020/12/11 12:04:18;;;;;;;35.05;16.48;;;4.60;89.90;;;;;;5036547;28;20020;-74
2020/12/11 12:06:44;;;;;;;39.10;17.02;;;4.20;89.50;;;;;;5070829;28;20036;-74
2020/12/11 12:09:10;;;;;;;35.08;13.90;;;4.40;90.50;;;;;;5052832;28;20024;-74
2020/12/11 12:11:36;;;;;;;50.20;16.95;;;4.60;90.00;;;;;;5053202;28;20056;-74
2020/12/11 12:14:01;;;;;;;48.58;15.60;;;4.40;88.80;;;;;;5070359;28;20033;-74
2020/12/11 12:16:27;;;;;;;34.55;15.48;;;4.30;90.40;;;;;;5036080;28;20017;-74
2020/12/11 12:18:56;;;;;;;32.95;16.85;;;4.50;90.90;;;;;;5070748;28;20058;-74
2020/12/11 12:21:36;;;;;;;54.70;17.65;;;4.70;90.00;;;;;;5070541;28;20021;-74
2020/12/11 12:29:30;;;;;;;99.35;18.58;;;4.20;91.30;;;;;;5052338;28;20016;-74
2020/12/11 12:32:01;;;;;;;99.55;19.75;;;4.40;91.20;;;;;;5070420;28;20050;-74
2020/12/11 12:45:04;;;;;;;23.60;13.73;;;4.50;90.20;;;;;;5032308;28;20035;-74
2020/12/11 12:47:30;;;;;;;20.65;12.40;;;4.50;90.00;;;;;;5050199;28;20061;-74
2020/12/11 12:49:55;;;;;;;28.98;15.10;;;4.60;90.00;;;;;;5050659;28;20049;-74
2020/12/11 12:52:21;;;;;;;27.95;13.88;;;4.70;90.50;;;;;;5016045;28;20510;-74
2020/12/11 12:54:47;;;;;;;32.60;13.85;;;4.70;90.50;;;;;;5050366;28;20520;-74
2020/12/11 12:57:27;;;;;;;25.50;10.93;;;4.80;90.60;;;;;;5049977;28;20179;-74
2020/12/11 13:00:07;;;;;;;32.60;12.05;;;5.90;88.70;;;;;;5032448;28;20429;-73
2020/12/11 13:05:11;;;;;;;31.63;11.65;;;8.30;75.90;;;;;;5032295;28;20211;-74
2020/12/11 13:07:37;;;;;;;17.15;10.13;;;8.90;72.40;;;;;;5050177;28;20391;-74
2020/12/11 13:10:07;;;;;;;21.00;10.38;;;9.70;69.70;;;;;;5049994;28;20029;-74
2020/12/11 13:12:33;;;;;;;13.73;10.00;;;10.50;66.60;;;;;;5032472;28;20025;-74
2020/12/11 13:14:59;;;;;;;18.90;11.20;;;10.90;64.20;;;;;;5049955;28;20112;-74
2020/12/11 13:17:24;;;;;;;21.00;11.43;;;10.90;62.00;;;;;;5032333;28;20484;-74
2020/12/11 13:19:51;;;;;;;23.05;11.30;;;10.60;62.20;;;;;;5049868;28;20032;-74
2020/12/11 13:27:31;;;;;;;21.92;12.38;;;10.40;62.20;;;;;;5032583;28;20029;-74
2020/12/11 13:29:57;;;;;;;33.00;12.80;;;10.30;64.10;;;;;;5032126;28;20120;-74